sensor_id;sensor_type;location;lat;lon;timestamp;P1;durP1;ratioP1;P2;durP2;ratioP2
14007;SDS011;61651;45.508;12.232;2023-11-19T00:01:52;29.47;;;24.47;;
14007;SDS011;61651;45.508;12.232;2023-11-19T00:04:54;27.70;;;24.70;;
14007;SDS011;61651;45.508;12.232;2023-11-19T00:07:56;30.37;;;25.70;;
14007;SDS011;61651;45.508;12.232;2023-11-19T00:11:00;26.57;;;23.77;;
14007;SDS011;61651;45.508;12.232;2023-11-19T00:14:03;30.33;;;25.60;;
14007;SDS011;61651;45.508;12.232;2023-11-19T00:17:08;25.77;;;23.23;;
14007;SDS011;61651;45.508;12.232;2023-11-19T00:20:10;27.43;;;24.67;;
14007;SDS011;61651;45.508;12.232;2023-11-19T00:23:13;27.67;;;24.77;;
14007;SDS011;61651;45.508;12.232;2023-11-19T00:26:17;27.47;;;24.57;;
14007;SDS011;61651;45.508;12.232;2023-11-19T00:29:19;27.50;;;24.57;;
14007;SDS011;61651;45.508;12.232;2023-11-19T00:32:21;28.50;;;25.13;;
14007;SDS011;61651;45.508;12.232;2023-11-19T00:35:23;28.10;;;24.90;;
14007;SDS011;61651;45.508;12.232;2023-11-19T00:38:25;27.20;;;24.20;;
14007;SDS011;61651;45.508;12.232;2023-11-19T00:41:28;26.83;;;23.97;;
14007;SDS011;61651;45.508;12.232;2023-11-19T00:44:30;26.93;;;24.13;;
14007;SDS011;61651;45.508;12.232;2023-11-19T00:47:32;28.17;;;23.67;;
14007;SDS011;61651;45.508;12.232;2023-11-19T00:50:35;27.23;;;23.53;;
14007;SDS011;61651;45.508;12.232;2023-11-19T00:53:37;26.37;;;23.43;;
14007;SDS011;61651;45.508;12.232;2023-11-19T00:56:40;26.17;;;23.47;;
14007;SDS011;61651;45.508;12.232;2023-11-19T00:59:42;27.63;;;22.97;;
14007;SDS011;61651;45.508;12.232;2023-11-19T01:02:45;25.43;;;22.83;;
14007;SDS011;61651;45.508;12.232;2023-11-19T01:05:49;23.43;;;21.07;;
14007;SDS011;61651;45.508;12.232;2023-11-19T01:08:52;24.43;;;21.30;;
14007;SDS011;61651;45.508;12.232;2023-11-19T01:11:56;24.77;;;22.23;;
14007;SDS011;61651;45.508;12.232;2023-11-19T01:14:58;24.43;;;21.73;;
14007;SDS011;61651;45.508;12.232;2023-11-19T01:18:01;25.13;;;22.63;;
14007;SDS011;61651;45.508;12.232;2023-11-19T01:21:05;23.23;;;20.93;;
14007;SDS011;61651;45.508;12.232;2023-11-19T01:24:07;25.77;;;22.30;;
14007;SDS011;61651;45.508;12.232;2023-11-19T01:27:13;24.87;;;21.40;;
14007;SDS011;61651;45.508;12.232;2023-11-19T01:30:15;23.50;;;21.00;;
14007;SDS011;61651;45.508;12.232;2023-11-19T01:33:17;23.97;;;21.43;;
14007;SDS011;61651;45.508;12.232;2023-11-19T01:36:21;22.50;;;20.07;;
14007;SDS011;61651;45.508;12.232;2023-11-19T01:39:24;23.03;;;20.63;;
14007;SDS011;61651;45.508;12.232;2023-11-19T01:42:27;23.83;;;21.27;;
14007;SDS011;61651;45.508;12.232;2023-11-19T01:45:29;22.63;;;20.27;;
14007;SDS011;61651;45.508;12.232;2023-11-19T01:48:32;21.73;;;19.53;;
14007;SDS011;61651;45.508;12.232;2023-11-19T01:51:36;22.47;;;19.50;;
14007;SDS011;61651;45.508;12.232;2023-11-19T01:54:39;22.37;;;19.97;;
14007;SDS011;61651;45.508;12.232;2023-11-19T01:57:42;21.97;;;19.67;;
14007;SDS011;61651;45.508;12.232;2023-11-19T02:00:44;22.90;;;19.83;;
14007;SDS011;61651;45.508;12.232;2023-11-19T02:03:46;22.27;;;20.03;;
14007;SDS011;61651;45.508;12.232;2023-11-19T02:06:48;21.73;;;19.10;;
14007;SDS011;61651;45.508;12.232;2023-11-19T02:09:56;21.77;;;19.57;;
14007;SDS011;61651;45.508;12.232;2023-11-19T02:13:00;22.50;;;19.60;;
14007;SDS011;61651;45.508;12.232;2023-11-19T02:16:05;22.37;;;19.97;;
14007;SDS011;61651;45.508;12.232;2023-11-19T02:19:09;21.10;;;18.93;;
14007;SDS011;61651;45.508;12.232;2023-11-19T02:22:11;22.93;;;18.73;;
14007;SDS011;61651;45.508;12.232;2023-11-19T02:25:15;22.53;;;20.07;;
14007;SDS011;61651;45.508;12.232;2023-11-19T02:28:22;25.80;;;18.67;;
14007;SDS011;61651;45.508;12.232;2023-11-19T02:31:25;20.77;;;18.33;;
14007;SDS011;61651;45.508;12.232;2023-11-19T02:34:27;19.63;;;17.63;;
14007;SDS011;61651;45.508;12.232;2023-11-19T02:37:29;21.97;;;19.67;;
14007;SDS011;61651;45.508;12.232;2023-11-19T02:40:31;20.77;;;18.67;;
14007;SDS011;61651;45.508;12.232;2023-11-19T02:43:35;20.77;;;18.67;;
14007;SDS011;61651;45.508;12.232;2023-11-19T02:46:39;20.43;;;18.33;;
14007;SDS011;61651;45.508;12.232;2023-11-19T02:49:42;21.00;;;18.90;;
14007;SDS011;61651;45.508;12.232;2023-11-19T02:52:44;19.63;;;17.40;;
14007;SDS011;61651;45.508;12.232;2023-11-19T02:55:46;20.03;;;17.93;;
14007;SDS011;61651;45.508;12.232;2023-11-19T02:58:51;19.80;;;17.43;;
14007;SDS011;61651;45.508;12.232;2023-11-19T03:01:54;19.53;;;17.53;;
14007;SDS011;61651;45.508;12.232;2023-11-19T03:04:56;19.80;;;17.70;;
14007;SDS011;61651;45.508;12.232;2023-11-19T03:08:00;19.77;;;17.70;;
14007;SDS011;61651;45.508;12.232;2023-11-19T03:11:03;19.30;;;17.33;;
14007;SDS011;61651;45.508;12.232;2023-11-19T03:14:07;21.43;;;18.30;;
14007;SDS011;61651;45.508;12.232;2023-11-19T03:17:09;19.73;;;17.73;;
14007;SDS011;61651;45.508;12.232;2023-11-19T03:20:11;19.00;;;17.10;;
14007;SDS011;61651;45.508;12.232;2023-11-19T03:23:15;19.20;;;17.20;;
14007;SDS011;61651;45.508;12.232;2023-11-19T03:26:17;19.40;;;17.50;;
14007;SDS011;61651;45.508;12.232;2023-11-19T03:29:20;20.40;;;18.10;;
14007;SDS011;61651;45.508;12.232;2023-11-19T03:32:23;18.90;;;16.53;;
14007;SDS011;61651;45.508;12.232;2023-11-19T03:35:25;18.60;;;16.73;;
14007;SDS011;61651;45.508;12.232;2023-11-19T03:38:28;21.27;;;16.33;;
14007;SDS011;61651;45.508;12.232;2023-11-19T03:41:30;19.40;;;17.33;;
14007;SDS011;61651;45.508;12.232;2023-11-19T03:44:33;19.00;;;17.13;;
14007;SDS011;61651;45.508;12.232;2023-11-19T03:47:35;19.13;;;17.07;;
14007;SDS011;61651;45.508;12.232;2023-11-19T03:50:37;19.70;;;17.70;;
14007;SDS011;61651;45.508;12.232;2023-11-19T03:53:39;19.07;;;17.07;;
14007;SDS011;61651;45.508;12.232;2023-11-19T03:56:41;19.53;;;17.53;;
14007;SDS011;61651;45.508;12.232;2023-11-19T03:59:45;20.93;;;18.73;;
14007;SDS011;61651;45.508;12.232;2023-11-19T04:02:47;20.20;;;18.17;;
14007;SDS011;61651;45.508;12.232;2023-11-19T04:05:49;20.30;;;17.80;;
14007;SDS011;61651;45.508;12.232;2023-11-19T04:08:51;19.10;;;17.10;;
14007;SDS011;61651;45.508;12.232;2023-11-19T04:11:53;18.97;;;17.07;;
14007;SDS011;61651;45.508;12.232;2023-11-19T04:14:56;19.10;;;17.17;;
14007;SDS011;61651;45.508;12.232;2023-11-19T04:17:58;18.03;;;16.30;;
14007;SDS011;61651;45.508;12.232;2023-11-19T04:21:00;18.60;;;16.80;;
14007;SDS011;61651;45.508;12.232;2023-11-19T04:24:03;19.37;;;17.40;;
14007;SDS011;61651;45.508;12.232;2023-11-19T04:27:05;19.83;;;17.80;;
14007;SDS011;61651;45.508;12.232;2023-11-19T04:30:09;20.43;;;18.43;;
14007;SDS011;61651;45.508;12.232;2023-11-19T04:33:12;20.23;;;18.23;;
14007;SDS011;61651;45.508;12.232;2023-11-19T04:36:18;19.67;;;17.77;;
14007;SDS011;61651;45.508;12.232;2023-11-19T04:39:21;20.10;;;18.07;;
14007;SDS011;61651;45.508;12.232;2023-11-19T04:42:23;19.77;;;17.87;;
14007;SDS011;61651;45.508;12.232;2023-11-19T04:45:26;19.20;;;17.40;;
14007;SDS011;61651;45.508;12.232;2023-11-19T04:48:29;21.03;;;18.43;;
14007;SDS011;61651;45.508;12.232;2023-11-19T04:51:31;20.07;;;18.07;;
14007;SDS011;61651;45.508;12.232;2023-11-19T04:54:40;19.73;;;17.60;;
14007;SDS011;61651;45.508;12.232;2023-11-19T04:57:43;20.27;;;18.17;;
14007;SDS011;61651;45.508;12.232;2023-11-19T05:00:46;20.27;;;18.17;;
14007;SDS011;61651;45.508;12.232;2023-11-19T05:03:48;21.73;;;19.53;;
14007;SDS011;61651;45.508;12.232;2023-11-19T05:06:51;19.73;;;17.73;;
14007;SDS011;61651;45.508;12.232;2023-11-19T05:09:53;21.10;;;18.30;;
14007;SDS011;61651;45.508;12.232;2023-11-19T05:12:55;21.20;;;18.77;;
14007;SDS011;61651;45.508;12.232;2023-11-19T05:15:59;20.70;;;18.60;;
14007;SDS011;61651;45.508;12.232;2023-11-19T05:19:01;18.77;;;16.87;;
14007;SDS011;61651;45.508;12.232;2023-11-19T05:22:03;20.20;;;18.20;;
14007;SDS011;61651;45.508;12.232;2023-11-19T05:25:06;21.00;;;18.77;;
14007;SDS011;61651;45.508;12.232;2023-11-19T05:28:09;21.17;;;19.00;;
14007;SDS011;61651;45.508;12.232;2023-11-19T05:31:12;20.90;;;18.70;;
14007;SDS011;61651;45.508;12.232;2023-11-19T05:34:14;21.17;;;18.97;;
14007;SDS011;61651;45.508;12.232;2023-11-19T05:37:16;21.43;;;19.37;;
14007;SDS011;61651;45.508;12.232;2023-11-19T05:40:18;21.70;;;19.50;;
14007;SDS011;61651;45.508;12.232;2023-11-19T05:43:20;21.50;;;19.23;;
14007;SDS011;61651;45.508;12.232;2023-11-19T05:46:24;21.17;;;19.07;;
14007;SDS011;61651;45.508;12.232;2023-11-19T05:49:27;21.20;;;19.20;;
14007;SDS011;61651;45.508;12.232;2023-11-19T05:52:29;21.53;;;19.33;;
14007;SDS011;61651;45.508;12.232;2023-11-19T05:55:33;21.80;;;19.50;;
14007;SDS011;61651;45.508;12.232;2023-11-19T05:58:36;20.67;;;18.47;;
14007;SDS011;61651;45.508;12.232;2023-11-19T06:01:40;22.03;;;19.73;;
14007;SDS011;61651;45.508;12.232;2023-11-19T06:04:43;21.43;;;19.10;;
14007;SDS011;61651;45.508;12.232;2023-11-19T06:07:47;20.70;;;18.60;;
14007;SDS011;61651;45.508;12.232;2023-11-19T06:10:51;22.30;;;19.90;;
14007;SDS011;61651;45.508;12.232;2023-11-19T06:13:53;23.20;;;20.67;;
14007;SDS011;61651;45.508;12.232;2023-11-19T06:16:57;22.27;;;19.97;;
14007;SDS011;61651;45.508;12.232;2023-11-19T06:20:00;22.77;;;20.37;;
14007;SDS011;61651;45.508;12.232;2023-11-19T06:23:04;22.37;;;20.03;;
14007;SDS011;61651;45.508;12.232;2023-11-19T06:26:06;20.70;;;18.70;;
14007;SDS011;61651;45.508;12.232;2023-11-19T06:29:09;20.70;;;18.57;;
14007;SDS011;61651;45.508;12.232;2023-11-19T06:32:12;21.20;;;19.07;;
14007;SDS011;61651;45.508;12.232;2023-11-19T06:35:14;21.00;;;18.90;;
14007;SDS011;61651;45.508;12.232;2023-11-19T06:38:16;23.23;;;20.73;;
14007;SDS011;61651;45.508;12.232;2023-11-19T06:41:18;24.20;;;21.00;;
14007;SDS011;61651;45.508;12.232;2023-11-19T06:44:20;21.90;;;19.50;;
14007;SDS011;61651;45.508;12.232;2023-11-19T06:47:24;21.67;;;19.47;;
14007;SDS011;61651;45.508;12.232;2023-11-19T06:50:27;22.60;;;20.30;;
14007;SDS011;61651;45.508;12.232;2023-11-19T06:53:29;20.27;;;18.27;;
14007;SDS011;61651;45.508;12.232;2023-11-19T06:56:31;21.63;;;19.33;;
14007;SDS011;61651;45.508;12.232;2023-11-19T06:59:33;23.03;;;20.73;;
14007;SDS011;61651;45.508;12.232;2023-11-19T07:02:36;22.03;;;19.83;;
14007;SDS011;61651;45.508;12.232;2023-11-19T07:05:39;21.30;;;19.20;;
14007;SDS011;61651;45.508;12.232;2023-11-19T07:08:41;21.53;;;19.43;;
14007;SDS011;61651;45.508;12.232;2023-11-19T07:11:45;21.80;;;19.70;;
14007;SDS011;61651;45.508;12.232;2023-11-19T07:14:47;21.63;;;19.53;;
14007;SDS011;61651;45.508;12.232;2023-11-19T07:17:50;22.97;;;20.47;;
14007;SDS011;61651;45.508;12.232;2023-11-19T07:20:54;22.43;;;20.17;;
14007;SDS011;61651;45.508;12.232;2023-11-19T07:23:56;22.33;;;19.97;;
14007;SDS011;61651;45.508;12.232;2023-11-19T07:26:58;21.87;;;19.47;;
14007;SDS011;61651;45.508;12.232;2023-11-19T07:30:00;42.37;;;34.10;;
14007;SDS011;61651;45.508;12.232;2023-11-19T07:33:04;33.63;;;28.63;;
14007;SDS011;61651;45.508;12.232;2023-11-19T07:36:06;23.70;;;20.10;;
14007;SDS011;61651;45.508;12.232;2023-11-19T07:39:09;18.83;;;16.97;;
14007;SDS011;61651;45.508;12.232;2023-11-19T07:42:11;19.60;;;17.50;;
14007;SDS011;61651;45.508;12.232;2023-11-19T07:45:13;59.80;;;39.30;;
14007;SDS011;61651;45.508;12.232;2023-11-19T07:48:16;63.13;;;42.63;;
14007;SDS011;61651;45.508;12.232;2023-11-19T07:51:22;39.80;;;29.77;;
14007;SDS011;61651;45.508;12.232;2023-11-19T07:54:24;25.40;;;21.23;;
14007;SDS011;61651;45.508;12.232;2023-11-19T07:57:27;18.73;;;15.70;;
14007;SDS011;61651;45.508;12.232;2023-11-19T08:00:31;19.43;;;16.00;;
14007;SDS011;61651;45.508;12.232;2023-11-19T08:03:34;73.27;;;42.60;;
14007;SDS011;61651;45.508;12.232;2023-11-19T08:06:36;34.57;;;25.03;;
14007;SDS011;61651;45.508;12.232;2023-11-19T08:09:38;38.70;;;28.60;;
14007;SDS011;61651;45.508;12.232;2023-11-19T08:12:40;26.07;;;22.67;;
14007;SDS011;61651;45.508;12.232;2023-11-19T08:15:42;21.40;;;18.00;;
14007;SDS011;61651;45.508;12.232;2023-11-19T08:18:46;17.10;;;15.23;;
14007;SDS011;61651;45.508;12.232;2023-11-19T08:21:48;18.90;;;13.77;;
14007;SDS011;61651;45.508;12.232;2023-11-19T08:24:50;16.07;;;14.23;;
14007;SDS011;61651;45.508;12.232;2023-11-19T08:27:52;22.47;;;20.17;;
14007;SDS011;61651;45.508;12.232;2023-11-19T08:30:54;16.27;;;14.03;;
14007;SDS011;61651;45.508;12.232;2023-11-19T08:33:57;16.23;;;14.23;;
14007;SDS011;61651;45.508;12.232;2023-11-19T08:36:59;15.50;;;13.83;;
14007;SDS011;61651;45.508;12.232;2023-11-19T08:40:01;16.60;;;14.90;;
14007;SDS011;61651;45.508;12.232;2023-11-19T08:43:04;15.67;;;14.07;;
14007;SDS011;61651;45.508;12.232;2023-11-19T08:46:09;14.63;;;13.13;;
14007;SDS011;61651;45.508;12.232;2023-11-19T08:49:12;15.50;;;14.00;;
14007;SDS011;61651;45.508;12.232;2023-11-19T08:52:14;14.30;;;13.00;;
14007;SDS011;61651;45.508;12.232;2023-11-19T08:55:17;13.97;;;12.57;;
14007;SDS011;61651;45.508;12.232;2023-11-19T08:58:19;13.83;;;12.43;;
14007;SDS011;61651;45.508;12.232;2023-11-19T09:01:22;12.67;;;11.37;;
14007;SDS011;61651;45.508;12.232;2023-11-19T09:04:26;12.27;;;11.07;;
14007;SDS011;61651;45.508;12.232;2023-11-19T09:07:28;12.70;;;11.27;;
14007;SDS011;61651;45.508;12.232;2023-11-19T09:10:30;12.37;;;11.20;;
14007;SDS011;61651;45.508;12.232;2023-11-19T09:13:32;12.87;;;11.57;;
14007;SDS011;61651;45.508;12.232;2023-11-19T09:16:34;11.93;;;10.83;;
14007;SDS011;61651;45.508;12.232;2023-11-19T09:19:38;12.17;;;10.73;;
14007;SDS011;61651;45.508;12.232;2023-11-19T09:22:40;11.00;;;9.90;;
14007;SDS011;61651;45.508;12.232;2023-11-19T09:25:42;11.37;;;9.37;;
14007;SDS011;61651;45.508;12.232;2023-11-19T09:28:44;9.80;;;8.57;;
14007;SDS011;61651;45.508;12.232;2023-11-19T09:31:46;9.43;;;8.40;;
14007;SDS011;61651;45.508;12.232;2023-11-19T09:34:50;9.52;;;8.68;;
14007;SDS011;61651;45.508;12.232;2023-11-19T09:37:52;9.73;;;8.73;;
14007;SDS011;61651;45.508;12.232;2023-11-19T09:40:54;10.77;;;7.70;;
14007;SDS011;61651;45.508;12.232;2023-11-19T09:43:57;9.00;;;8.10;;
14007;SDS011;61651;45.508;12.232;2023-11-19T09:46:59;8.73;;;7.37;;
14007;SDS011;61651;45.508;12.232;2023-11-19T09:50:03;8.47;;;7.67;;
14007;SDS011;61651;45.508;12.232;2023-11-19T09:53:06;9.10;;;8.17;;
14007;SDS011;61651;45.508;12.232;2023-11-19T09:56:08;8.30;;;7.60;;
14007;SDS011;61651;45.508;12.232;2023-11-19T09:59:11;8.33;;;7.53;;
14007;SDS011;61651;45.508;12.232;2023-11-19T10:02:14;8.13;;;7.33;;
14007;SDS011;61651;45.508;12.232;2023-11-19T10:05:18;8.83;;;7.93;;
14007;SDS011;61651;45.508;12.232;2023-11-19T10:08:23;8.60;;;7.80;;
14007;SDS011;61651;45.508;12.232;2023-11-19T10:11:25;8.87;;;8.07;;
14007;SDS011;61651;45.508;12.232;2023-11-19T10:14:27;8.83;;;7.40;;
14007;SDS011;61651;45.508;12.232;2023-11-19T10:17:32;9.23;;;8.33;;
14007;SDS011;61651;45.508;12.232;2023-11-19T10:20:36;8.43;;;7.60;;
14007;SDS011;61651;45.508;12.232;2023-11-19T10:23:48;9.37;;;8.37;;
14007;SDS011;61651;45.508;12.232;2023-11-19T10:26:51;8.73;;;7.82;;
14007;SDS011;61651;45.508;12.232;2023-11-19T10:29:53;9.87;;;6.83;;
14007;SDS011;61651;45.508;12.232;2023-11-19T10:33:05;6.83;;;6.13;;
14007;SDS011;61651;45.508;12.232;2023-11-19T10:36:10;7.13;;;6.43;;
14007;SDS011;61651;45.508;12.232;2023-11-19T10:39:13;7.93;;;7.22;;
14007;SDS011;61651;45.508;12.232;2023-11-19T10:42:15;7.47;;;6.73;;
14007;SDS011;61651;45.508;12.232;2023-11-19T10:45:22;7.27;;;6.57;;
14007;SDS011;61651;45.508;12.232;2023-11-19T10:48:24;7.30;;;6.53;;
14007;SDS011;61651;45.508;12.232;2023-11-19T10:51:28;7.27;;;6.10;;
14007;SDS011;61651;45.508;12.232;2023-11-19T10:54:30;6.90;;;6.20;;
14007;SDS011;61651;45.508;12.232;2023-11-19T10:57:35;7.07;;;6.38;;
14007;SDS011;61651;45.508;12.232;2023-11-19T11:00:42;9.63;;;6.97;;
14007;SDS011;61651;45.508;12.232;2023-11-19T11:03:46;8.03;;;7.23;;
14007;SDS011;61651;45.508;12.232;2023-11-19T11:06:52;8.77;;;7.60;;
14007;SDS011;61651;45.508;12.232;2023-11-19T11:09:58;8.60;;;7.70;;
14007;SDS011;61651;45.508;12.232;2023-11-19T11:13:02;8.27;;;7.47;;
14007;SDS011;61651;45.508;12.232;2023-11-19T11:16:04;9.80;;;7.70;;
14007;SDS011;61651;45.508;12.232;2023-11-19T11:19:08;9.13;;;8.13;;
14007;SDS011;61651;45.508;12.232;2023-11-19T11:22:12;9.13;;;8.23;;
14007;SDS011;61651;45.508;12.232;2023-11-19T11:25:23;8.20;;;7.40;;
14007;SDS011;61651;45.508;12.232;2023-11-19T11:28:39;7.85;;;7.00;;
14007;SDS011;61651;45.508;12.232;2023-11-19T11:31:48;7.95;;;7.25;;
14007;SDS011;61651;45.508;12.232;2023-11-19T11:35:09;9.88;;;8.40;;
14007;SDS011;61651;45.508;12.232;2023-11-19T11:38:21;8.95;;;7.78;;
14007;SDS011;61651;45.508;12.232;2023-11-19T11:41:24;9.68;;;8.38;;
14007;SDS011;61651;45.508;12.232;2023-11-19T11:48:10;9.63;;;8.73;;
14007;SDS011;61651;45.508;12.232;2023-11-19T11:51:13;9.77;;;8.60;;
14007;SDS011;61651;45.508;12.232;2023-11-19T11:54:26;13.45;;;8.93;;
14007;SDS011;61651;45.508;12.232;2023-11-19T11:57:33;9.63;;;8.70;;
14007;SDS011;61651;45.508;12.232;2023-11-19T12:00:38;11.25;;;9.77;;
14007;SDS011;61651;45.508;12.232;2023-11-19T12:03:41;11.07;;;9.32;;
14007;SDS011;61651;45.508;12.232;2023-11-19T12:06:46;10.30;;;9.15;;
14007;SDS011;61651;45.508;12.232;2023-11-19T12:10:07;10.38;;;9.25;;
14007;SDS011;61651;45.508;12.232;2023-11-19T12:13:11;11.80;;;10.50;;
14007;SDS011;61651;45.508;12.232;2023-11-19T12:16:14;10.70;;;9.68;;
14007;SDS011;61651;45.508;12.232;2023-11-19T12:19:16;10.35;;;9.35;;
14007;SDS011;61651;45.508;12.232;2023-11-19T12:22:19;10.52;;;9.43;;
14007;SDS011;61651;45.508;12.232;2023-11-19T12:25:23;10.80;;;9.70;;
14007;SDS011;61651;45.508;12.232;2023-11-19T12:28:25;12.25;;;10.25;;
14007;SDS011;61651;45.508;12.232;2023-11-19T12:31:27;11.52;;;10.32;;
14007;SDS011;61651;45.508;12.232;2023-11-19T12:34:29;10.65;;;9.55;;
14007;SDS011;61651;45.508;12.232;2023-11-19T12:37:32;11.27;;;10.07;;
14007;SDS011;61651;45.508;12.232;2023-11-19T12:40:36;11.23;;;10.07;;
14007;SDS011;61651;45.508;12.232;2023-11-19T12:43:39;11.75;;;10.55;;
14007;SDS011;61651;45.508;12.232;2023-11-19T12:46:41;13.27;;;11.38;;
14007;SDS011;61651;45.508;12.232;2023-11-19T12:49:43;11.27;;;10.18;;
14007;SDS011;61651;45.508;12.232;2023-11-19T12:52:54;12.77;;;10.00;;
14007;SDS011;61651;45.508;12.232;2023-11-19T12:55:59;12.15;;;10.93;;
14007;SDS011;61651;45.508;12.232;2023-11-19T12:59:10;11.80;;;10.60;;
14007;SDS011;61651;45.508;12.232;2023-11-19T13:02:13;11.98;;;9.68;;
14007;SDS011;61651;45.508;12.232;2023-11-19T13:05:20;13.45;;;11.45;;
14007;SDS011;61651;45.508;12.232;2023-11-19T13:08:26;12.50;;;11.27;;
14007;SDS011;61651;45.508;12.232;2023-11-19T13:11:33;14.07;;;10.82;;
14007;SDS011;61651;45.508;12.232;2023-11-19T13:14:37;12.05;;;10.80;;
14007;SDS011;61651;45.508;12.232;2023-11-19T13:17:40;11.95;;;10.75;;
14007;SDS011;61651;45.508;12.232;2023-11-19T13:20:42;13.65;;;12.25;;
14007;SDS011;61651;45.508;12.232;2023-11-19T13:23:44;12.55;;;11.32;;
14007;SDS011;61651;45.508;12.232;2023-11-19T13:26:47;13.13;;;11.75;;
14007;SDS011;61651;45.508;12.232;2023-11-19T13:29:49;12.35;;;11.15;;
14007;SDS011;61651;45.508;12.232;2023-11-19T13:32:52;12.30;;;11.10;;
14007;SDS011;61651;45.508;12.232;2023-11-19T13:35:55;13.40;;;12.00;;
14007;SDS011;61651;45.508;12.232;2023-11-19T13:38:57;13.25;;;11.90;;
14007;SDS011;61651;45.508;12.232;2023-11-19T13:42:01;13.40;;;12.10;;
14007;SDS011;61651;45.508;12.232;2023-11-19T13:45:03;11.98;;;10.70;;
14007;SDS011;61651;45.508;12.232;2023-11-19T13:48:10;12.82;;;11.63;;
14007;SDS011;61651;45.508;12.232;2023-11-19T13:51:12;13.23;;;11.85;;
14007;SDS011;61651;45.508;12.232;2023-11-19T13:54:15;13.68;;;12.27;;
14007;SDS011;61651;45.508;12.232;2023-11-19T13:57:18;12.73;;;11.43;;
14007;SDS011;61651;45.508;12.232;2023-11-19T14:00:20;12.65;;;11.35;;
14007;SDS011;61651;45.508;12.232;2023-11-19T14:03:24;12.93;;;11.63;;
14007;SDS011;61651;45.508;12.232;2023-11-19T14:06:26;12.77;;;11.48;;
14007;SDS011;61651;45.508;12.232;2023-11-19T14:09:28;12.48;;;11.27;;
14007;SDS011;61651;45.508;12.232;2023-11-19T14:12:31;12.40;;;11.20;;
14007;SDS011;61651;45.508;12.232;2023-11-19T14:15:33;13.80;;;12.40;;
14007;SDS011;61651;45.508;12.232;2023-11-19T14:18:36;12.93;;;11.63;;
14007;SDS011;61651;45.508;12.232;2023-11-19T14:21:38;13.82;;;11.48;;
14007;SDS011;61651;45.508;12.232;2023-11-19T14:24:40;14.37;;;13.00;;
14007;SDS011;61651;45.508;12.232;2023-11-19T14:27:44;12.55;;;11.20;;
14007;SDS011;61651;45.508;12.232;2023-11-19T14:30:46;12.52;;;11.23;;
14007;SDS011;61651;45.508;12.232;2023-11-19T14:33:53;14.63;;;12.13;;
14007;SDS011;61651;45.508;12.232;2023-11-19T14:36:55;14.55;;;11.30;;
14007;SDS011;61651;45.508;12.232;2023-11-19T14:39:57;12.45;;;11.15;;
14007;SDS011;61651;45.508;12.232;2023-11-19T14:43:02;13.52;;;11.38;;
14007;SDS011;61651;45.508;12.232;2023-11-19T14:46:04;11.73;;;10.52;;
14007;SDS011;61651;45.508;12.232;2023-11-19T14:49:06;11.38;;;10.18;;
14007;SDS011;61651;45.508;12.232;2023-11-19T14:52:09;13.05;;;9.80;;
14007;SDS011;61651;45.508;12.232;2023-11-19T14:55:11;11.30;;;10.10;;
14007;SDS011;61651;45.508;12.232;2023-11-19T14:58:14;11.02;;;9.93;;
14007;SDS011;61651;45.508;12.232;2023-11-19T15:01:16;12.10;;;10.48;;
14007;SDS011;61651;45.508;12.232;2023-11-19T15:04:19;12.82;;;10.45;;
14007;SDS011;61651;45.508;12.232;2023-11-19T15:07:21;11.02;;;9.93;;
14007;SDS011;61651;45.508;12.232;2023-11-19T15:10:23;11.65;;;9.82;;
14007;SDS011;61651;45.508;12.232;2023-11-19T15:13:27;11.27;;;9.88;;
14007;SDS011;61651;45.508;12.232;2023-11-19T15:16:29;10.32;;;9.32;;
14007;SDS011;61651;45.508;12.232;2023-11-19T15:19:34;11.73;;;9.98;;
14007;SDS011;61651;45.508;12.232;2023-11-19T15:22:36;12.77;;;11.25;;
14007;SDS011;61651;45.508;12.232;2023-11-19T15:25:38;10.70;;;9.38;;
14007;SDS011;61651;45.508;12.232;2023-11-19T15:28:41;11.38;;;9.98;;
14007;SDS011;61651;45.508;12.232;2023-11-19T15:31:43;10.25;;;8.77;;
14007;SDS011;61651;45.508;12.232;2023-11-19T15:34:45;10.52;;;9.45;;
14007;SDS011;61651;45.508;12.232;2023-11-19T15:37:48;11.38;;;10.25;;
14007;SDS011;61651;45.508;12.232;2023-11-19T15:40:50;12.13;;;10.35;;
14007;SDS011;61651;45.508;12.232;2023-11-19T15:43:53;13.27;;;10.43;;
14007;SDS011;61651;45.508;12.232;2023-11-19T15:46:56;12.93;;;11.63;;
14007;SDS011;61651;45.508;12.232;2023-11-19T15:49:59;13.27;;;11.90;;
14007;SDS011;61651;45.508;12.232;2023-11-19T15:53:01;12.48;;;10.52;;
14007;SDS011;61651;45.508;12.232;2023-11-19T15:56:03;13.27;;;11.88;;
14007;SDS011;61651;45.508;12.232;2023-11-19T15:59:07;12.57;;;11.10;;
14007;SDS011;61651;45.508;12.232;2023-11-19T16:02:09;12.60;;;11.23;;
14007;SDS011;61651;45.508;12.232;2023-11-19T16:05:12;12.23;;;10.95;;
14007;SDS011;61651;45.508;12.232;2023-11-19T16:08:14;14.68;;;12.57;;
14007;SDS011;61651;45.508;12.232;2023-11-19T16:11:16;12.43;;;11.13;;
14007;SDS011;61651;45.508;12.232;2023-11-19T16:14:20;12.63;;;11.32;;
14007;SDS011;61651;45.508;12.232;2023-11-19T16:17:21;13.15;;;11.60;;
14007;SDS011;61651;45.508;12.232;2023-11-19T16:20:23;12.25;;;10.95;;
14007;SDS011;61651;45.508;12.232;2023-11-19T16:23:26;13.32;;;11.93;;
14007;SDS011;61651;45.508;12.232;2023-11-19T16:26:28;14.00;;;12.48;;
14007;SDS011;61651;45.508;12.232;2023-11-19T16:29:34;14.95;;;13.45;;
14007;SDS011;61651;45.508;12.232;2023-11-19T16:32:36;17.50;;;13.90;;
14007;SDS011;61651;45.508;12.232;2023-11-19T16:35:49;14.75;;;13.30;;
14007;SDS011;61651;45.508;12.232;2023-11-19T16:38:51;14.85;;;13.25;;
14007;SDS011;61651;45.508;12.232;2023-11-19T16:41:53;15.30;;;13.73;;
14007;SDS011;61651;45.508;12.232;2023-11-19T16:44:57;15.73;;;13.10;;
14007;SDS011;61651;45.508;12.232;2023-11-19T16:47:59;16.33;;;14.63;;
14007;SDS011;61651;45.508;12.232;2023-11-19T16:51:08;17.15;;;15.27;;
14007;SDS011;61651;45.508;12.232;2023-11-19T16:54:13;17.53;;;15.53;;
14007;SDS011;61651;45.508;12.232;2023-11-19T16:57:15;16.43;;;14.73;;
14007;SDS011;61651;45.508;12.232;2023-11-19T17:00:19;17.63;;;15.27;;
14007;SDS011;61651;45.508;12.232;2023-11-19T17:03:21;19.92;;;16.02;;
14007;SDS011;61651;45.508;12.232;2023-11-19T17:06:23;20.83;;;14.53;;
14007;SDS011;61651;45.508;12.232;2023-11-19T17:09:26;17.10;;;15.37;;
14007;SDS011;61651;45.508;12.232;2023-11-19T17:12:28;18.83;;;15.77;;
14007;SDS011;61651;45.508;12.232;2023-11-19T17:15:32;17.23;;;15.30;;
14007;SDS011;61651;45.508;12.232;2023-11-19T17:18:34;23.33;;;20.63;;
14007;SDS011;61651;45.508;12.232;2023-11-19T17:21:47;18.44;;;16.52;;
14007;SDS011;61651;45.508;12.232;2023-11-19T17:24:49;105.60;;;94.33;;
14007;SDS011;61651;45.508;12.232;2023-11-19T17:27:51;55.57;;;48.90;;
14007;SDS011;61651;45.508;12.232;2023-11-19T17:30:54;28.17;;;25.27;;
14007;SDS011;61651;45.508;12.232;2023-11-19T17:33:56;24.13;;;21.07;;
14007;SDS011;61651;45.508;12.232;2023-11-19T17:36:58;29.40;;;24.67;;
14007;SDS011;61651;45.508;12.232;2023-11-19T17:40:00;138.20;;;92.70;;
14007;SDS011;61651;45.508;12.232;2023-11-19T17:43:02;46.13;;;34.13;;
14007;SDS011;61651;45.508;12.232;2023-11-19T17:46:06;78.17;;;54.43;;